Sunkist, California
Current Conditions -  °F | °C
As of 9:53 PM on Saturday 27 Dec 2014 (Local Time) from KFUL Reporting Station
Clear Clear  
Wind Chill:   Ceiling: Unl
Heat Index:   Visibility: 10mi
Dew Point: -1°   Wind: 3mph
Humidity: 52%   Direction: 90°E
Pressure: 30.32"   Gusts: NA
Location:  33.8393°N, 117.87°W
Report Text: KFUL 280553Z 09003KT 10SM CLR 09/M01 A3032 RMK AO2 SLP268 T00891006 10167 20089 53002
Loading
Personal Weather Stations






























Interactive Weather Map New forecast layout! Learn more

10-Day Weather Forecast

Advertisements
Track Severe Weather on mobile